Time;durP1;ratioP1;P1;durP2;ratioP2;P2;SDS_P1;SDS_P2;PMS_P1;PMS_P2;Temp;Humidity;BMP_temperature;BMP_pressure;BME280_temperature;BME280_humidity;BME280_pressure;Samples;Min_cycle;Max_cycle;Signal;HPM_P1;HPM_P2
2021/10/29 00:01:09;;;;;;;28.30;14.93;;;;;;;3.71;72.35;100443.16;4898451;29;20055;-61
2021/10/29 00:03:39;;;;;;;31.00;14.40;;;;;;;3.88;72.68;100449.72;4898486;29;20108;-61
2021/10/29 00:06:13;;;;;;;25.55;14.27;;;;;;;3.86;72.10;100445.44;4898403;29;20092;-61
2021/10/29 00:08:42;;;;;;;27.63;14.40;;;;;;;3.93;72.88;100440.66;4898673;29;20053;-60
2021/10/29 00:11:18;;;;;;;29.25;14.80;;;;;;;4.02;72.73;100438.47;4898377;29;20080;-60
2021/10/29 00:13:47;;;;;;;31.85;16.00;;;;;;;4.02;72.13;100433.44;4897589;29;20057;-60
2021/10/29 00:16:16;;;;;;;27.20;14.57;;;;;;;4.01;72.04;100436.75;4898658;29;20402;-60
2021/10/29 00:18:46;;;;;;;;;;;;;;;4.03;72.46;100435.13;4898719;29;20104;-60
2021/10/29 00:21:20;;;;;;;31.70;15.43;;;;;;;4.04;72.12;100434.34;4898551;29;19927;-60
2021/10/29 00:23:49;;;;;;;26.92;14.90;;;;;;;4.07;72.12;100439.53;4898616;29;20295;-60
2021/10/29 00:26:21;;;;;;;31.42;15.10;;;;;;;3.98;71.58;100433.25;4898208;29;20104;-59
2021/10/29 00:28:51;;;;;;;26.92;14.23;;;;;;;3.96;71.96;100433.19;4899878;29;20052;-60
2021/10/29 00:31:24;;;;;;;36.47;17.10;;;;;;;4.02;71.42;100433.44;4902027;29;20131;-60
2021/10/29 00:33:54;;;;;;;33.22;15.20;;;;;;;3.93;71.76;100427.19;4902341;29;20045;-60
2021/10/29 00:36:27;;;;;;;30.98;15.55;;;;;;;3.93;71.47;100419.59;4901934;29;20045;-60
2021/10/29 00:38:57;;;;;;;30.20;14.60;;;;;;;3.89;72.05;100426.19;4902239;29;20143;-60
2021/10/29 00:41:29;;;;;;;31.80;14.65;;;;;;;3.88;71.44;100419.44;4902422;29;20458;-60
2021/10/29 00:43:58;;;;;;;31.20;14.75;;;;;;;3.96;71.98;100423.09;4901808;29;20074;-60
2021/10/29 00:46:31;;;;;;;24.98;14.10;;;;;;;3.99;71.96;100415.63;4901740;29;20135;-60
2021/10/29 00:49:04;;;;;;;33.40;14.38;;;;;;;4.00;71.90;100424.94;4902345;29;20376;-60
2021/10/29 00:51:39;;;;;;;33.40;13.43;;;;;;;3.85;71.71;100418.44;4901660;29;20049;-60
2021/10/29 00:54:08;;;;;;;26.75;14.40;;;;;;;3.83;71.29;100415.00;4902042;29;20076;-60
2021/10/29 00:56:40;;;;;;;30.63;14.43;;;;;;;3.85;71.40;100414.25;4901645;29;20051;-60
2021/10/29 00:59:11;;;;;;;26.02;13.90;;;;;;;3.79;72.03;100414.00;4901599;29;20079;-60
2021/10/29 01:01:43;;;;;;;27.63;13.98;;;;;;;3.85;71.99;100415.91;4901691;29;20175;-60
2021/10/29 01:04:16;;;;;;;30.63;13.88;;;;;;;3.77;72.16;100410.56;4901505;29;20057;-61
2021/10/29 01:06:53;;;;;;;26.88;12.93;;;;;;;3.70;71.84;100403.56;4901515;29;20045;-61
2021/10/29 01:09:26;;;;;;;25.70;12.48;;;;;;;3.74;71.17;100410.44;4902590;29;20079;-61
2021/10/29 01:11:58;;;;;;;25.48;13.48;;;;;;;3.62;71.57;100404.09;4901397;29;20059;-61
2021/10/29 01:14:31;;;;;;;31.42;13.90;;;;;;;3.48;71.11;100395.97;4900683;29;20083;-60
2021/10/29 01:17:04;;;;;;;23.70;12.27;;;;;;;3.32;71.49;100388.63;4901314;29;20045;-61
2021/10/29 01:19:39;;;;;;;27.67;13.65;;;;;;;3.33;72.61;100401.31;4901543;29;20064;-61
2021/10/29 01:22:13;;;;;;;27.08;14.52;;;;;;;3.26;72.36;100401.00;4901712;29;20049;-61
2021/10/29 01:24:43;;;;;;;35.05;14.50;;;;;;;3.10;72.86;100401.16;4901512;29;20058;-60
2021/10/29 01:27:16;;;;;;;25.95;13.23;;;;;;;3.17;72.77;100400.63;4900934;29;20044;-60
2021/10/29 01:29:50;;;;;;;27.17;14.27;;;;;;;3.29;73.01;100394.41;4901612;29;20053;-61
2021/10/29 01:32:24;;;;;;;25.40;12.70;;;;;;;3.32;72.71;100398.72;4901039;29;20044;-61
2021/10/29 01:34:54;;;;;;;26.50;13.65;;;;;;;3.06;72.90;100374.13;4900963;29;20056;-60
2021/10/29 01:37:25;;;;;;;21.02;11.82;;;;;;;3.19;73.45;100399.03;4900879;29;20044;-60
2021/10/29 01:39:57;;;;;;;24.48;13.05;;;;;;;3.07;72.74;100390.97;4900390;29;20048;-60
2021/10/29 01:42:27;;;;;;;24.88;12.63;;;;;;;2.98;73.50;100396.50;4900861;29;20140;-60
2021/10/29 01:44:57;;;;;;;24.63;12.75;;;;;;;3.06;73.86;100385.06;4900752;29;20052;-60
2021/10/29 01:47:29;;;;;;;22.58;11.70;;;;;;;3.19;73.67;100394.00;4900618;29;20131;-60
2021/10/29 01:50:02;;;;;;;22.38;12.18;;;;;;;3.21;73.73;100389.88;4901034;29;20483;-60
2021/10/29 01:52:36;;;;;;;24.10;12.30;;;;;;;3.27;74.39;100382.53;4900950;29;20060;-60
2021/10/29 01:55:08;;;;;;;22.88;12.10;;;;;;;3.21;74.13;100389.88;4900827;29;20045;-60
2021/10/29 01:57:37;;;;;;;22.67;12.02;;;;;;;3.12;73.49;100389.50;4900942;29;20128;-61
2021/10/29 02:00:10;;;;;;;22.77;13.00;;;;;;;3.19;73.35;100383.91;4884390;29;20036;-61
2021/10/29 02:02:45;;;;;;;22.35;11.98;;;;;;;3.19;73.17;100376.34;4900477;29;20052;-61
2021/10/29 02:05:17;;;;;;;18.35;11.07;;;;;;;3.15;73.43;100380.41;4900461;29;20056;-61
2021/10/29 02:07:51;;;;;;;21.33;11.38;;;;;;;3.22;73.33;100374.78;4900319;29;20044;-61
2021/10/29 02:10:24;;;;;;;21.50;11.45;;;;;;;3.03;73.28;100374.00;4900980;29;20143;-61
2021/10/29 02:12:56;;;;;;;23.17;12.40;;;;;;;2.98;74.35;100371.28;4900315;29;20108;-61
2021/10/29 02:15:29;;;;;;;24.00;12.25;;;;;;;2.89;73.94;100377.63;4900095;29;20059;-61
2021/10/29 02:18:01;;;;;;;23.52;12.40;;;;;;;2.96;73.95;100372.88;4900537;29;20092;-61
2021/10/29 02:20:34;;;;;;;23.45;12.30;;;;;;;3.03;73.66;100374.84;4900184;29;20060;-61
2021/10/29 02:23:08;;;;;;;21.42;12.20;;;;;;;3.10;73.04;100375.94;4900109;29;20064;-61
2021/10/29 02:25:44;;;;;;;24.13;11.80;;;;;;;3.13;73.87;100366.00;4900104;29;20052;-61
2021/10/29 02:28:19;;;;;;;24.33;12.52;;;;;;;3.06;73.23;100369.06;4899941;29;20078;-61
2021/10/29 02:30:51;;;;;;;24.73;12.38;;;;;;;3.18;73.94;100364.53;4900273;29;20131;-61
2021/10/29 02:33:25;;;;;;;21.95;11.05;;;;;;;3.07;73.26;100374.16;4899946;29;20451;-61
2021/10/29 02:35:55;;;;;;;23.20;11.32;;;;;;;3.08;73.03;100358.25;4900174;29;20056;-61
2021/10/29 02:38:25;;;;;;;;;;;;;;;3.18;73.15;100374.59;4900450;29;20191;-60
2021/10/29 02:40:57;;;;;;;19.55;11.63;;;;;;;3.12;73.02;100365.13;4900096;29;20034;-60
2021/10/29 02:43:30;;;;;;;21.30;10.98;;;;;;;3.03;73.17;100369.81;4899728;29;20063;-60
2021/10/29 02:46:04;;;;;;;22.67;11.60;;;;;;;3.14;73.65;100362.69;4899711;29;20053;-60
2021/10/29 02:48:36;;;;;;;24.60;12.50;;;;;;;3.19;73.36;100369.63;4899824;29;20111;-60
2021/10/29 02:51:08;;;;;;;25.05;13.07;;;;;;;3.20;72.95;100367.97;4898720;29;20136;-60
2021/10/29 02:53:42;;;;;;;22.67;12.43;;;;;;;3.30;73.55;100365.00;4899542;29;20049;-61
2021/10/29 02:56:15;;;;;;;25.30;12.20;;;;;;;3.37;73.72;100366.97;4899525;29;20112;-61
2021/10/29 02:58:47;;;;;;;25.02;12.52;;;;;;;3.42;73.45;100365.47;4899452;29;20075;-60
2021/10/29 03:01:19;;;;;;;25.27;11.25;;;;;;;3.49;73.19;100369.09;4899440;29;20060;-60
2021/10/29 03:03:49;;;;;;;20.02;11.73;;;;;;;3.51;73.43;100365.81;4899648;29;20135;-60
2021/10/29 03:06:21;;;;;;;24.52;11.88;;;;;;;3.38;73.66;100364.47;4899588;29;20443;-60
2021/10/29 03:08:52;;;;;;;22.55;11.48;;;;;;;3.36;73.52;100357.66;4899183;29;20135;-60
2021/10/29 03:11:21;;;;;;;21.70;11.35;;;;;;;3.36;73.02;100360.19;4899204;29;20053;-60
2021/10/29 03:13:51;;;;;;;22.80;11.95;;;;;;;3.41;73.02;100361.22;4898801;29;20061;-60
2021/10/29 03:16:23;;;;;;;23.90;11.88;;;;;;;3.51;73.10;100364.97;4899161;29;20096;-60
2021/10/29 03:18:53;;;;;;;22.85;11.88;;;;;;;3.53;73.21;100364.22;4899431;29;20498;-61
2021/10/29 03:21:26;;;;;;;22.77;12.43;;;;;;;3.53;73.12;100361.69;4882654;29;20147;-61
2021/10/29 03:23:56;;;;;;;25.40;11.88;;;;;;;3.43;73.53;100359.66;4899365;29;20131;-60
2021/10/29 03:26:29;;;;;;;26.13;12.20;;;;;;;3.28;73.15;100357.38;4898935;29;20104;-61
2021/10/29 03:28:58;;;;;;;24.10;12.55;;;;;;;3.14;73.53;100357.66;4898947;29;20549;-61
2021/10/29 03:31:30;;;;;;;22.35;13.30;;;;;;;2.91;73.38;100361.75;4898829;29;20503;-61
2021/10/29 03:34:00;;;;;;;23.42;12.68;;;;;;;2.95;73.74;100360.22;4898824;29;20494;-61
2021/10/29 03:36:32;;;;;;;22.97;12.93;;;;;;;3.03;73.64;100357.22;4899066;29;20511;-61
2021/10/29 03:39:06;;;;;;;22.85;12.32;;;;;;;2.83;72.81;100357.22;4898834;29;20645;-60
2021/10/29 03:41:44;;;;;;;23.20;12.43;;;;;;;2.75;73.43;100354.38;4899098;29;20139;-60
2021/10/29 03:44:17;;;;;;;24.05;12.18;;;;;;;2.77;73.59;100351.91;4898678;29;20051;-60
2021/10/29 03:46:51;;;;;;;23.65;13.25;;;;;;;2.80;73.39;100357.09;4898989;29;20044;-61
2021/10/29 03:49:28;;;;;;;24.92;13.50;;;;;;;2.92;74.04;100350.03;4898529;29;20048;-60
2021/10/29 03:52:07;;;;;;;23.00;12.85;;;;;;;3.05;73.78;100349.69;4898924;29;20116;-61
2021/10/29 03:54:38;;;;;;;23.13;11.93;;;;;;;3.11;73.14;100352.47;4899106;29;20070;-60
2021/10/29 03:57:24;;;;;;;22.55;12.27;;;;;;;3.10;73.26;100356.66;4898569;29;20108;-61
2021/10/29 03:59:57;;;;;;;24.27;13.02;;;;;;;2.96;73.51;100356.91;4898566;29;20049;-61
2021/10/29 04:02:30;;;;;;;25.27;12.63;;;;;;;3.03;74.02;100353.81;4898371;29;20402;-61
2021/10/29 04:05:00;;;;;;;25.17;12.52;;;;;;;2.98;73.61;100356.16;4898671;29;20571;-61
2021/10/29 04:07:32;;;;;;;23.55;12.63;;;;;;;2.86;73.25;100349.75;4898708;29;20071;-61
2021/10/29 04:10:04;;;;;;;24.67;12.50;;;;;;;2.95;72.98;100355.19;4898766;29;20048;-61
2021/10/29 04:12:37;;;;;;;24.00;13.00;;;;;;;3.05;73.52;100347.16;4898998;29;20064;-61
2021/10/29 04:15:06;;;;;;;23.17;11.88;;;;;;;2.85;72.91;100345.53;4898156;29;20065;-61
2021/10/29 04:17:39;;;;;;;27.90;14.00;;;;;;;2.75;73.69;100346.81;4898338;29;20064;-61
2021/10/29 04:20:11;;;;;;;26.35;13.38;;;;;;;2.80;72.78;100344.47;4898343;29;20585;-60
2021/10/29 04:22:44;;;;;;;23.13;12.35;;;;;;;2.71;73.86;100344.97;4898601;29;20053;-60
2021/10/29 04:25:18;;;;;;;22.45;12.15;;;;;;;2.58;73.25;100338.56;4898431;29;20047;-60
2021/10/29 04:27:57;;;;;;;21.75;11.88;;;;;;;2.51;73.85;100344.16;4898226;29;20101;-61
2021/10/29 04:30:29;;;;;;;24.85;14.00;;;;;;;2.52;74.13;100329.91;4898608;29;20144;-61
2021/10/29 04:33:06;;;;;;;25.00;14.50;;;;;;;2.49;73.64;100335.69;4898569;29;20135;-60
2021/10/29 04:35:41;;;;;;;27.75;15.73;;;;;;;2.51;74.31;100331.56;4898249;29;20053;-60
2021/10/29 04:38:14;;;;;;;27.38;15.65;;;;;;;2.51;74.02;100330.69;4898191;29;20048;-61
2021/10/29 04:40:49;;;;;;;32.47;18.80;;;;;;;2.43;74.08;100332.88;4898158;29;20081;-60
2021/10/29 04:43:22;;;;;;;31.30;18.77;;;;;;;2.62;74.45;100340.41;4898171;29;20067;-60
2021/10/29 04:45:54;;;;;;;32.65;18.02;;;;;;;2.63;73.87;100319.47;4898439;29;20052;-60
2021/10/29 04:48:27;;;;;;;26.80;16.50;;;;;;;2.82;73.68;100338.72;4898069;29;20053;-61
2021/10/29 04:51:00;;;;;;;30.15;16.27;;;;;;;2.90;74.23;100336.50;4898105;29;20061;-61
2021/10/29 04:53:32;;;;;;;26.13;15.00;;;;;;;2.81;74.34;100331.09;4898041;29;20056;-61
2021/10/29 04:56:06;;;;;;;23.58;12.45;;;;;;;2.87;73.62;100336.38;4898081;29;20053;-61
2021/10/29 04:58:38;;;;;;;25.42;13.80;;;;;;;2.82;74.10;100332.81;4898009;29;20053;-61
2021/10/29 05:01:07;;;;;;;25.83;13.25;;;;;;;2.75;73.50;100331.69;4881301;29;20104;-61
2021/10/29 05:03:40;;;;;;;25.33;13.15;;;;;;;2.63;73.73;100341.28;4897972;29;20578;-61
2021/10/29 05:06:14;;;;;;;22.92;13.13;;;;;;;2.49;73.78;100338.19;4897988;29;20045;-61
2021/10/29 05:08:46;;;;;;;22.00;12.48;;;;;;;2.49;74.48;100328.13;4898094;29;20087;-60
2021/10/29 05:11:20;;;;;;;22.73;13.25;;;;;;;2.55;74.24;100328.34;4897973;29;20048;-61
2021/10/29 05:13:52;;;;;;;24.60;12.88;;;;;;;2.49;74.17;100325.59;4897439;29;20448;-61
2021/10/29 05:16:22;;;;;;;25.67;12.95;;;;;;;2.59;74.68;100330.19;4901772;29;20045;-61
2021/10/29 05:18:54;;;;;;;27.98;13.13;;;;;;;2.65;74.63;100335.50;4901194;29;20100;-61
2021/10/29 05:21:26;;;;;;;24.55;12.90;;;;;;;2.62;74.92;100330.34;4901475;29;20406;-61
2021/10/29 05:23:58;;;;;;;26.20;11.40;;;;;;;2.71;74.56;100330.69;4901256;29;20056;-61
2021/10/29 05:26:29;;;;;;;22.08;11.80;;;;;;;2.61;74.93;100335.31;4901156;29;20089;-60
2021/10/29 05:28:59;;;;;;;29.55;13.13;;;;;;;2.69;74.72;100327.25;4900953;29;20053;-61
2021/10/29 05:31:31;;;;;;;22.17;12.80;;;;;;;2.78;74.66;100326.78;4901011;29;20044;-60
2021/10/29 05:34:01;;;;;;;29.30;13.50;;;;;;;2.89;75.02;100325.56;4884516;29;20518;-60
2021/10/29 05:36:30;;;;;;;23.38;12.90;;;;;;;2.94;74.38;100326.59;4900896;29;20132;-61
2021/10/29 05:39:00;;;;;;;24.00;12.45;;;;;;;2.98;74.83;100325.03;4900813;29;20135;-61
2021/10/29 05:41:34;;;;;;;28.40;12.95;;;;;;;2.98;74.60;100328.44;4900869;29;20049;-61
2021/10/29 05:44:04;;;;;;;25.27;12.45;;;;;;;3.06;74.17;100323.69;4901197;29;20135;-61
2021/10/29 05:46:41;;;;;;;24.73;13.57;;;;;;;3.09;74.33;100319.66;4901101;29;20045;-60
2021/10/29 05:49:12;;;;;;;29.65;15.02;;;;;;;3.17;74.39;100324.97;4900968;29;20403;-61
2021/10/29 05:52:00;;;;;;;39.17;18.85;;;;;;;3.16;74.00;100326.66;4843023;29;20052;-61
2021/10/29 05:57:12;;;;;;;39.00;19.50;;;;;;;3.23;73.49;100322.69;4842999;29;20561;-61
2021/10/29 05:59:42;;;;;;;77.15;27.45;;;;;;;3.31;73.45;100321.34;4842808;29;20097;-61
2021/10/29 06:02:16;;;;;;;92.20;30.63;;;;;;;3.34;74.05;100322.28;4842730;29;20142;-61
2021/10/29 06:04:49;;;;;;;85.05;29.20;;;;;;;3.43;74.16;100321.81;4842663;29;20078;-61
2021/10/29 06:07:24;;;;;;;45.13;20.25;;;;;;;3.53;73.50;100318.78;4843424;29;20054;-61
2021/10/29 06:09:56;;;;;;;67.13;24.33;;;;;;;3.64;73.67;100317.56;4864205;29;20051;-60
2021/10/29 06:12:30;;;;;;;62.08;22.25;;;;;;;3.66;73.81;100320.97;4900321;29;20059;-60
2021/10/29 06:15:04;;;;;;;60.83;24.42;;;;;;;3.74;73.60;100319.56;4899415;29;20440;-61
2021/10/29 06:17:34;;;;;;;63.85;22.75;;;;;;;3.81;73.49;100318.16;4900466;29;20376;-60
2021/10/29 06:20:04;;;;;;;;;;;;;;;3.89;73.43;100320.16;4900863;29;20412;-60
2021/10/29 06:22:38;;;;;;;52.00;21.48;;;;;;;3.92;73.52;100329.50;4900080;29;19931;-60
2021/10/29 06:25:13;;;;;;;42.67;18.08;;;;;;;3.97;73.96;100323.81;4900058;29;20052;-60
2021/10/29 06:30:26;;;;;;;29.95;15.73;;;;;;;4.19;73.22;100332.13;4900130;29;20055;-60
2021/10/29 06:32:59;;;;;;;30.27;15.37;;;;;;;4.27;73.81;100328.22;4899956;29;20048;-60
2021/10/29 06:35:32;;;;;;;33.13;15.65;;;;;;;4.24;73.64;100338.22;4899799;29;20048;-60
2021/10/29 06:38:01;;;;;;;32.38;15.30;;;;;;;4.39;73.44;100331.19;4899782;29;20485;-60
2021/10/29 06:40:36;;;;;;;33.33;16.63;;;;;;;4.46;73.25;100335.63;4899704;29;20443;-60
2021/10/29 06:43:12;;;;;;;32.92;15.30;;;;;;;4.49;73.50;100328.13;4899577;29;20076;-60
2021/10/29 06:48:31;;;;;;;28.42;15.43;;;;;;;4.85;73.16;100326.81;4891558;29;20081;-60
2021/10/29 07:01:52;;;;;;;29.25;15.80;;;;;;;5.49;72.68;100323.75;4899213;29;20245;-60
2021/10/29 07:13:00;;;;;;;23.63;13.25;;;;;;;5.96;71.85;100324.34;4899408;29;20049;-60
2021/10/29 07:42:07;;;;;;;29.03;16.50;;;;;;;7.31;69.99;100341.34;4898626;29;20052;-60
2021/10/29 07:44:38;;;;;;;26.25;15.48;;;;;;;7.41;70.58;100347.47;4898634;29;20053;-60
2021/10/29 07:47:11;;;;;;;29.30;14.80;;;;;;;7.58;70.07;100340.22;4898702;29;20491;-60
2021/10/29 07:49:41;;;;;;;27.48;14.95;;;;;;;7.78;70.56;100346.56;4898387;29;20072;-60
2021/10/29 07:52:10;;;;;;;24.02;14.07;;;;;;;7.83;70.13;100333.16;4899085;29;20411;-60
2021/10/29 07:54:44;;;;;;;34.47;15.77;;;;;;;7.95;70.59;100330.88;4898371;29;20135;-60
2021/10/29 07:57:17;;;;;;;29.35;16.23;;;;;;;8.04;70.00;100318.31;4898544;29;20083;-60
2021/10/29 07:59:48;;;;;;;29.33;16.02;;;;;;;8.30;69.93;100335.81;4898502;29;20068;-60
2021/10/29 08:02:19;;;;;;;30.50;16.50;;;;;;;8.55;69.55;100332.88;4898547;29;20053;-60
2021/10/29 08:04:49;;;;;;;31.50;16.67;;;;;;;8.74;69.26;100335.78;4898379;29;20123;-60
2021/10/29 08:07:18;;;;;;;29.70;16.67;;;;;;;8.77;69.46;100332.41;4898499;29;20088;-60
2021/10/29 08:09:48;;;;;;;28.45;15.88;;;;;;;8.96;69.18;100338.66;4898481;29;20045;-60
2021/10/29 08:12:19;;;;;;;30.02;16.45;;;;;;;9.06;69.15;100331.22;4898291;29;20067;-60
2021/10/29 08:14:49;;;;;;;29.67;16.65;;;;;;;9.16;68.47;100340.72;4898157;29;20060;-60
2021/10/29 08:17:21;;;;;;;27.65;16.92;;;;;;;9.21;68.20;100336.50;4898269;29;20056;-60
2021/10/29 08:19:51;;;;;;;29.15;16.70;;;;;;;9.36;68.37;100318.91;4898518;29;20053;-60
2021/10/29 08:22:21;;;;;;;29.90;15.90;;;;;;;9.66;68.00;100332.94;4898071;29;20104;-60
2021/10/29 08:24:50;;;;;;;;;;;;;;;9.80;68.04;100331.41;4899038;29;20135;-60
2021/10/29 08:27:26;;;;;;;27.85;16.08;;;;;;;9.89;66.96;100326.41;4898221;29;19927;-60
2021/10/29 08:29:56;;;;;;;24.38;14.70;;;;;;;10.00;67.01;100314.66;4898109;29;20427;-60
2021/10/29 08:32:27;;;;;;;24.35;15.60;;;;;;;10.21;66.35;100317.50;4898013;29;20092;-60
2021/10/29 08:34:57;;;;;;;28.67;15.18;;;;;;;10.19;66.44;100315.75;4898114;29;20406;-60
2021/10/29 08:37:31;;;;;;;26.75;16.08;;;;;;;10.26;66.34;100315.84;4898101;29;20076;-60
2021/10/29 08:40:05;;;;;;;27.83;16.38;;;;;;;10.40;66.03;100314.28;4898132;29;20056;-60
2021/10/29 08:42:38;;;;;;;28.23;16.13;;;;;;;10.38;65.95;100303.22;4898189;29;20053;-60
2021/10/29 08:45:12;;;;;;;26.75;15.48;;;;;;;10.56;65.37;100313.59;4898278;29;20502;-60
2021/10/29 08:47:47;;;;;;;25.67;14.85;;;;;;;10.84;65.06;100319.81;4897748;29;20059;-60
2021/10/29 08:50:18;;;;;;;23.90;14.07;;;;;;;11.07;64.77;100312.31;4899519;29;20076;-60
2021/10/29 08:52:49;;;;;;;21.90;12.98;;;;;;;11.08;64.14;100316.59;4902003;29;20052;-60
2021/10/29 08:55:25;;;;;;;23.98;14.35;;;;;;;11.02;63.55;100294.41;4901817;29;20116;-60
2021/10/29 08:57:55;;;;;;;20.33;12.85;;;;;;;11.34;63.81;100312.50;4901593;29;20499;-61
2021/10/29 09:00:30;;;;;;;20.55;13.00;;;;;;;11.69;62.43;100303.34;4901909;29;20169;-60
2021/10/29 09:03:11;;;;;;;22.80;13.07;;;;;;;11.79;61.60;100302.56;4901829;29;20499;-60
2021/10/29 09:05:47;;;;;;;20.58;12.35;;;;;;;11.95;60.49;100283.84;4901515;29;20052;-60
2021/10/29 09:08:23;;;;;;;21.42;12.30;;;;;;;12.34;59.77;100305.28;4901678;29;20057;-60
2021/10/29 09:32:33;;;;;;;21.10;13.25;;;;;;;13.72;55.80;100300.97;4901089;29;20143;-61
2021/10/29 09:35:08;;;;;;;21.38;13.07;;;;;;;13.78;55.99;100293.25;4900969;29;20076;-60
2021/10/29 09:37:59;;;;;;;17.88;12.32;;;;;;;13.98;55.22;100289.75;4900759;29;20052;-61
2021/10/29 09:40:42;;;;;;;16.75;9.52;;;;;;;14.33;53.51;100288.72;4900928;29;20562;-60
2021/10/29 09:43:13;;;;;;;13.65;7.60;;;;;;;14.49;50.88;100260.34;4900829;29;20044;-60
2021/10/29 09:45:48;;;;;;;12.45;8.07;;;;;;;14.85;49.44;100284.94;4901017;29;20048;-60
2021/10/29 09:48:21;;;;;;;12.27;7.57;;;;;;;14.95;48.48;100283.97;4900689;29;20147;-60
2021/10/29 09:50:58;;;;;;;11.95;8.13;;;;;;;14.99;48.50;100280.50;4900497;29;20139;-60
2021/10/29 09:53:40;;;;;;;12.98;8.48;;;;;;;15.17;48.37;100276.91;4900777;29;20058;-61
2021/10/29 09:56:16;;;;;;;12.10;7.13;;;;;;;15.21;48.15;100251.13;4900542;29;20525;-60
2021/10/29 09:58:50;;;;;;;13.23;7.20;;;;;;;15.49;47.26;100267.16;4900659;29;20064;-60
2021/10/29 10:01:24;;;;;;;10.38;6.57;;;;;;;15.63;46.71;100249.84;4900097;29;20056;-60
2021/10/29 10:03:57;;;;;;;13.00;7.50;;;;;;;15.87;46.43;100259.84;4900341;29;20159;-60
2021/10/29 10:06:31;;;;;;;9.63;7.10;;;;;;;15.88;45.33;100256.38;4900334;29;20055;-60
2021/10/29 10:09:07;;;;;;;12.43;7.32;;;;;;;15.89;45.72;100263.25;4900325;29;20063;-60
2021/10/29 10:11:43;;;;;;;12.98;7.65;;;;;;;15.88;45.46;100269.25;4900233;29;20487;-60
2021/10/29 10:14:16;;;;;;;11.82;6.82;;;;;;;15.77;45.81;100253.09;4899718;29;20562;-60
2021/10/29 10:16:50;;;;;;;12.70;7.90;;;;;;;15.81;45.70;100266.78;4900110;29;20056;-60
2021/10/29 10:19:20;;;;;;;11.25;7.07;;;;;;;15.69;45.89;100260.06;4900061;29;20048;-61
2021/10/29 10:21:57;;;;;;;12.50;6.20;;;;;;;15.71;45.16;100253.19;4900039;29;20056;-60
2021/10/29 10:24:31;;;;;;;11.27;7.00;;;;;;;15.63;45.04;100249.00;4900289;29;20067;-60
2021/10/29 10:27:22;;;;;;;11.85;7.25;;;;;;;15.60;45.04;100249.88;4900026;29;20048;-60
2021/10/29 10:30:01;;;;;;;9.23;6.53;;;;;;;15.56;45.22;100257.66;4900200;29;20135;-60
2021/10/29 10:41:17;;;;;;;10.50;6.82;;;;;;;15.82;45.06;100240.16;4899645;29;20048;-61
2021/10/29 10:46:48;;;;;;;11.75;7.50;;;;;;;16.02;44.56;100227.88;4899520;29;20048;-60
2021/10/29 10:49:21;;;;;;;12.30;7.10;;;;;;;16.13;44.62;100225.13;4899689;29;20517;-60
2021/10/29 10:52:05;;;;;;;11.60;7.00;;;;;;;16.37;44.67;100219.63;4899393;29;20052;-60
2021/10/29 10:54:45;;;;;;;13.93;6.95;;;;;;;16.61;43.60;100221.84;4899770;29;20053;-60
2021/10/29 10:57:24;;;;;;;;;;;;;;;16.74;43.13;100220.78;4899814;29;20135;-60
2021/10/29 11:00:11;;;;;;;7.25;4.32;;;;;;;16.77;41.86;100220.72;4899285;29;19989;-60
2021/10/29 11:11:17;;;;;;;9.50;6.43;;;;;;;17.16;40.89;100201.94;4899356;29;20041;-60
2021/10/29 11:13:59;;;;;;;9.60;5.53;;;;;;;17.29;40.84;100205.13;4897660;29;20059;-61
2021/10/29 11:16:33;;;;;;;9.75;6.00;;;;;;;17.33;40.45;100207.63;4899272;29;20594;-61
2021/10/29 11:19:07;;;;;;;9.63;6.25;;;;;;;17.15;40.31;100202.84;4898974;29;20053;-60
2021/10/29 11:21:50;;;;;;;14.07;6.03;;;;;;;17.19;40.00;100204.47;4898888;29;20076;-61
2021/10/29 11:24:30;;;;;;;10.02;5.20;;;;;;;17.23;39.96;100185.47;4899247;29;20090;-61
2021/10/29 11:27:12;;;;;;;11.13;5.90;;;;;;;17.23;39.93;100190.63;4898922;29;20067;-60
2021/10/29 11:29:49;;;;;;;11.07;6.50;;;;;;;17.10;39.83;100199.50;4898903;29;20143;-61
2021/10/29 11:32:19;;;;;;;10.70;6.28;;;;;;;17.02;39.87;100165.25;4899134;29;20048;-60
2021/10/29 11:34:58;;;;;;;8.95;5.65;;;;;;;17.23;39.95;100169.13;4899060;29;20067;-60
2021/10/29 11:37:29;;;;;;;8.98;6.13;;;;;;;17.14;39.31;100170.16;4898688;29;20083;-60
2021/10/29 11:40:00;;;;;;;10.23;5.72;;;;;;;17.21;39.67;100170.88;4898810;29;20059;-61
2021/10/29 11:42:32;;;;;;;11.35;6.60;;;;;;;17.27;39.65;100174.22;4899091;29;20049;-60
2021/10/29 11:45:03;;;;;;;10.20;5.82;;;;;;;17.38;39.54;100169.69;4898928;29;20086;-60
2021/10/29 11:47:40;;;;;;;9.20;5.80;;;;;;;17.34;39.22;100167.19;4899061;29;20403;-60
2021/10/29 11:50:12;;;;;;;8.80;5.53;;;;;;;17.23;39.50;100159.66;4898519;29;20052;-60
2021/10/29 11:52:42;;;;;;;10.20;6.15;;;;;;;17.37;39.42;100162.81;4898696;29;20451;-61
2021/10/29 11:55:20;;;;;;;12.88;6.20;;;;;;;17.40;39.27;100152.44;4898364;29;20045;-61
2021/10/29 11:58:04;;;;;;;11.15;6.20;;;;;;;17.44;38.95;100142.91;4881882;29;20083;-61
2021/10/29 12:00:46;;;;;;;10.30;6.45;;;;;;;17.51;39.33;100138.44;4898467;29;20104;-61
2021/10/29 12:06:14;;;;;;;10.18;5.88;;;;;;;17.55;39.42;100137.53;4898684;29;20048;-61
2021/10/29 12:08:44;;;;;;;10.13;6.40;;;;;;;17.46;39.83;100135.13;4898266;29;20087;-61
2021/10/29 12:11:19;;;;;;;11.65;6.57;;;;;;;17.43;39.92;100136.88;4898201;29;20110;-61
2021/10/29 12:13:51;;;;;;;9.85;5.72;;;;;;;17.30;40.06;100119.09;4898134;29;20395;-61
2021/10/29 12:16:24;;;;;;;11.68;6.05;;;;;;;17.42;39.96;100135.16;4898578;29;20063;-61
2021/10/29 12:18:58;;;;;;;10.05;6.28;;;;;;;17.47;39.23;100121.34;4898148;29;20418;-60
2021/10/29 12:21:29;;;;;;;9.93;6.35;;;;;;;17.38;38.99;100122.38;4898481;29;20135;-61
2021/10/29 12:24:02;;;;;;;11.23;6.28;;;;;;;17.39;39.39;100124.94;4899676;29;20045;-61
2021/10/29 12:26:37;;;;;;;10.10;6.40;;;;;;;17.34;39.25;100111.28;4902136;29;20127;-61
2021/10/29 12:29:14;;;;;;;10.85;6.47;;;;;;;17.43;40.00;100117.97;4901958;29;20109;-61
2021/10/29 12:32:25;;;;;;;10.38;6.60;;;;;;;17.49;40.19;100114.41;4901919;29;20048;-61
2021/10/29 12:54:20;;;;;;;11.07;6.57;;;;;;;17.08;40.52;100098.06;4901903;29;20057;-60
2021/10/29 13:02:24;;;;;;;16.70;7.15;;;;;;;17.12;40.07;100089.38;4901392;29;20139;-61
2021/10/29 13:04:57;;;;;;;10.32;6.75;;;;;;;17.04;40.50;100088.69;4901450;29;20088;-60
2021/10/29 13:07:27;;;;;;;11.88;7.35;;;;;;;17.16;40.83;100096.16;4901363;29;20052;-61
2021/10/29 13:10:06;;;;;;;14.40;7.28;;;;;;;17.07;40.78;100091.22;4901667;29;20455;-61
2021/10/29 13:12:47;;;;;;;10.82;7.00;;;;;;;17.08;40.57;100085.19;4901519;29;20404;-61
2021/10/29 13:15:18;;;;;;;11.88;6.40;;;;;;;17.15;40.93;100088.47;4900407;29;20061;-61
2021/10/29 13:17:55;;;;;;;10.65;6.72;;;;;;;17.16;40.58;100078.09;4901271;29;20059;-60
2021/10/29 13:28:43;;;;;;;11.18;6.13;;;;;;;16.99;40.62;100069.03;4900943;29;20075;-60
2021/10/29 13:36:43;;;;;;;12.23;5.43;;;;;;;16.95;39.51;100073.41;4900072;29;20058;-61
2021/10/29 13:52:42;;;;;;;;;;;;;;;16.49;39.60;100059.66;4900995;29;20083;-61
2021/10/29 14:30:22;;;;;;;10.23;6.70;;;;;;;15.38;42.49;100032.31;4900304;29;20048;-60
2021/10/29 14:32:59;;;;;;;10.98;6.10;;;;;;;15.38;42.70;100032.31;4899901;29;20136;-61
2021/10/29 14:35:34;;;;;;;15.57;7.45;;;;;;;15.42;42.94;100023.69;4899905;29;20059;-61
2021/10/29 14:38:16;;;;;;;12.65;6.47;;;;;;;15.36;43.00;100023.75;4900143;29;20077;-60
2021/10/29 14:40:48;;;;;;;11.60;6.65;;;;;;;15.30;42.10;100023.88;4900081;29;20106;-61
2021/10/29 14:43:24;;;;;;;9.57;6.18;;;;;;;15.17;42.40;100006.91;4900004;29;20130;-61
2021/10/29 14:46:03;;;;;;;10.85;6.18;;;;;;;15.27;42.82;100018.75;4899648;29;20060;-61
2021/10/29 14:48:44;;;;;;;10.80;6.03;;;;;;;15.26;42.80;100019.66;4898917;29;20080;-61
2021/10/29 15:29:40;;;;;;;10.55;5.80;;;;;;;14.31;44.71;99990.88;4898934;29;20514;-61
2021/10/29 15:45:47;;;;;;;12.88;6.13;;;;;;;13.46;47.48;99977.09;4898777;29;20075;-61